createdAt,value
2022-08-19T00:01:58.988Z,7.50
2022-08-19T00:04:31.113Z,12.33
2022-08-19T00:06:58.960Z,9.67
2022-08-19T00:09:27.476Z,12.03
2022-08-19T00:11:56.689Z,13.63
2022-08-19T00:14:25.413Z,8.47
2022-08-19T00:16:55.353Z,9.90
2022-08-19T00:19:23.091Z,7.63
2022-08-19T00:21:50.482Z,12.53
2022-08-19T00:24:17.627Z,8.63
2022-08-19T00:26:47.003Z,9.57
2022-08-19T00:29:17.254Z,10.97
2022-08-19T00:31:45.416Z,10.73
2022-08-19T00:34:14.510Z,13.30
2022-08-19T00:36:43.069Z,10.80
2022-08-19T00:39:11.656Z,8.57
2022-08-19T00:41:38.853Z,8.37
2022-08-19T00:44:21.037Z,13.33
2022-08-19T00:46:55.460Z,12.70
2022-08-19T00:49:41.818Z,19.63
2022-08-19T00:52:34.648Z,9.93
2022-08-19T00:55:02.807Z,11.80
2022-08-19T00:57:36.357Z,13.27
2022-08-19T01:00:13.726Z,11.70
2022-08-19T01:02:42.964Z,11.50
2022-08-19T01:05:17.284Z,8.40
2022-08-19T01:07:45.986Z,8.10
2022-08-19T01:10:19.516Z,14.37
2022-08-19T01:12:50.472Z,11.03
2022-08-19T01:15:22.284Z,9.33
2022-08-19T01:17:50.463Z,12.03
2022-08-19T01:20:21.272Z,11.00
2022-08-19T01:22:58.678Z,12.30
2022-08-19T01:25:32.475Z,13.70
2022-08-19T01:28:09.926Z,9.03
2022-08-19T01:30:38.669Z,10.63
2022-08-19T01:33:06.870Z,8.30
2022-08-19T01:35:34.057Z,10.80
2022-08-19T01:38:08.505Z,7.97
2022-08-19T01:40:40.764Z,9.33
2022-08-19T01:43:07.944Z,12.50
2022-08-19T01:45:37.053Z,9.60
2022-08-19T01:48:04.862Z,8.87
2022-08-19T01:50:33.345Z,10.87
2022-08-19T01:53:06.303Z,8.17
2022-08-19T01:55:40.633Z,8.40
2022-08-19T01:58:13.268Z,12.53
2022-08-19T02:00:41.393Z,9.30
2022-08-19T02:03:09.714Z,11.70
2022-08-19T02:05:36.737Z,10.30
2022-08-19T02:08:04.960Z,10.33
2022-08-19T02:10:33.107Z,10.07
2022-08-19T02:13:00.823Z,9.27
2022-08-19T02:15:27.972Z,9.63
2022-08-19T02:17:55.099Z,11.27
2022-08-19T02:20:22.157Z,9.70
2022-08-19T02:22:49.206Z,12.40
2022-08-19T02:25:16.400Z,13.10
2022-08-19T02:27:43.924Z,10.67
2022-08-19T02:30:16.912Z,11.00
2022-08-19T02:32:54.433Z,11.27
2022-08-19T02:35:22.375Z,15.23
2022-08-19T02:38:08.315Z,10.80
2022-08-19T02:40:36.623Z,13.33
2022-08-19T02:43:08.751Z,14.20
2022-08-19T02:45:37.444Z,17.07
2022-08-19T02:48:21.061Z,10.50
2022-08-19T02:50:56.724Z,11.80
2022-08-19T02:53:27.417Z,12.50
2022-08-19T02:55:54.659Z,13.80
2022-08-19T02:58:25.140Z,11.37
2022-08-19T03:00:57.419Z,13.53
2022-08-19T03:03:24.759Z,11.60
2022-08-19T03:05:56.754Z,9.70
2022-08-19T03:08:26.907Z,13.00
2022-08-19T03:10:54.675Z,9.87
2022-08-19T03:13:21.751Z,10.53
2022-08-19T03:15:49.453Z,10.57
2022-08-19T03:18:18.005Z,11.50
2022-08-19T03:20:51.537Z,9.50
2022-08-19T03:23:18.562Z,9.17
2022-08-19T03:26:03.997Z,9.43
2022-08-19T03:28:35.590Z,12.37
2022-08-19T03:31:41.619Z,8.10
2022-08-19T03:34:02.191Z,8.23
2022-08-19T03:36:31.244Z,10.43
2022-08-19T03:39:00.967Z,10.40
2022-08-19T03:41:45.680Z,14.40
2022-08-19T03:44:18.658Z,13.67
2022-08-19T03:46:48.396Z,11.53
2022-08-19T03:49:18.154Z,10.87
2022-08-19T03:51:47.443Z,12.50
2022-08-19T03:54:17.560Z,10.23
2022-08-19T03:56:46.547Z,9.67
2022-08-19T03:59:17.824Z,8.83
2022-08-19T04:01:44.966Z,10.60
2022-08-19T04:04:12.063Z,10.53
2022-08-19T04:06:40.169Z,7.63
2022-08-19T04:09:11.841Z,8.37
2022-08-19T04:11:48.540Z,11.30
2022-08-19T04:14:20.991Z,11.40
2022-08-19T04:16:49.390Z,8.37
2022-08-19T04:19:18.519Z,10.03
2022-08-19T04:21:52.049Z,11.10
2022-08-19T04:24:20.304Z,8.57
2022-08-19T04:26:49.182Z,6.60
2022-08-19T04:29:22.931Z,9.50
2022-08-19T04:31:50.823Z,6.90
2022-08-19T04:34:25.092Z,10.13
2022-08-19T04:36:54.092Z,7.43
2022-08-19T04:39:48.715Z,8.27
2022-08-19T04:42:36.042Z,10.10
2022-08-19T04:45:05.491Z,10.13
2022-08-19T04:47:47.799Z,8.83
2022-08-19T04:50:25.930Z,8.57
2022-08-19T04:52:53.540Z,7.37
2022-08-19T04:55:20.922Z,7.23
2022-08-19T04:57:47.979Z,8.13
2022-08-19T05:00:15.161Z,6.23
2022-08-19T05:02:42.488Z,7.60
2022-08-19T05:05:09.731Z,13.67
2022-08-19T05:07:37.143Z,7.83
2022-08-19T05:10:06.381Z,9.90
2022-08-19T05:12:33.474Z,7.40
2022-08-19T05:15:02.063Z,9.23
2022-08-19T05:17:32.296Z,9.97
2022-08-19T05:20:20.627Z,9.40
2022-08-19T05:22:49.060Z,13.43
2022-08-19T05:25:20.642Z,10.63
2022-08-19T05:27:48.749Z,8.23
2022-08-19T05:30:16.794Z,10.90
2022-08-19T05:32:44.642Z,12.13
2022-08-19T05:35:13.067Z,11.20
2022-08-19T05:37:43.845Z,10.90
2022-08-19T05:40:11.761Z,6.13
2022-08-19T05:42:39.139Z,9.17
2022-08-19T05:45:06.940Z,8.40
2022-08-19T05:47:34.000Z,10.93
2022-08-19T05:50:05.156Z,12.47
2022-08-19T05:52:32.525Z,8.43
2022-08-19T05:55:01.005Z,8.70
2022-08-19T05:57:30.156Z,12.63
2022-08-19T06:00:01.555Z,8.83
2022-08-19T06:02:34.422Z,10.73
2022-08-19T06:05:02.676Z,10.30
2022-08-19T06:07:30.532Z,9.77
2022-08-19T06:10:00.027Z,10.03
2022-08-19T06:12:29.836Z,9.10
2022-08-19T06:15:00.825Z,10.23
2022-08-19T06:17:31.739Z,11.60
2022-08-19T06:20:00.291Z,8.03
2022-08-19T06:22:28.832Z,11.97
2022-08-19T06:24:56.999Z,7.77
2022-08-19T06:27:24.632Z,6.93
2022-08-19T06:29:51.701Z,10.13
2022-08-19T06:32:20.328Z,10.23
2022-08-19T06:34:47.930Z,16.37
2022-08-19T06:37:15.037Z,9.73
2022-08-19T06:39:44.567Z,10.87
2022-08-19T06:42:14.202Z,13.33
2022-08-19T06:44:48.778Z,8.40
2022-08-19T06:47:24.008Z,9.43
2022-08-19T06:50:01.455Z,9.80
2022-08-19T06:52:36.558Z,11.73
2022-08-19T06:55:06.671Z,13.80
2022-08-19T06:57:34.949Z,9.40
2022-08-19T07:00:02.335Z,9.10
2022-08-19T07:02:29.459Z,10.40
2022-08-19T07:04:59.254Z,12.73
2022-08-19T07:07:26.426Z,13.77
2022-08-19T07:09:59.415Z,10.07
2022-08-19T07:12:36.027Z,14.60
2022-08-19T07:15:10.807Z,13.30
2022-08-19T07:17:41.892Z,9.03
2022-08-19T07:20:11.319Z,9.33
2022-08-19T07:22:39.259Z,16.03
2022-08-19T07:25:09.162Z,9.80
2022-08-19T07:27:36.359Z,8.03
2022-08-19T07:30:05.684Z,7.07
2022-08-19T07:32:40.134Z,7.83
2022-08-19T07:35:08.639Z,7.70
2022-08-19T07:37:36.906Z,6.77
2022-08-19T07:40:07.455Z,11.93
2022-08-19T07:42:34.603Z,8.60
2022-08-19T07:45:01.640Z,10.40
2022-08-19T07:47:48.037Z,8.40
2022-08-19T07:50:17.225Z,6.73
2022-08-19T07:52:48.940Z,7.60
2022-08-19T07:55:41.106Z,7.10
2022-08-19T07:58:10.036Z,9.37
2022-08-19T08:00:37.602Z,9.73
2022-08-19T08:03:04.981Z,6.77
2022-08-19T08:05:50.388Z,7.13
2022-08-19T08:08:36.180Z,14.57
2022-08-19T08:11:03.537Z,8.03
2022-08-19T08:13:36.520Z,7.90
2022-08-19T08:16:10.171Z,11.73
2022-08-19T08:18:50.700Z,11.93
2022-08-19T08:21:20.279Z,7.60
2022-08-19T08:23:47.398Z,11.80
2022-08-19T08:26:16.090Z,9.40
2022-08-19T08:28:43.295Z,8.67
2022-08-19T08:31:15.817Z,9.47
2022-08-19T08:33:43.709Z,8.93
2022-08-19T08:36:12.042Z,10.80
2022-08-19T08:38:40.910Z,10.20
2022-08-19T08:41:31.792Z,8.90
2022-08-19T08:44:00.006Z,9.93
2022-08-19T08:46:46.593Z,9.70
2022-08-19T08:49:21.597Z,7.77
2022-08-19T08:52:21.345Z,8.57
2022-08-19T08:54:55.387Z,9.07
2022-08-19T08:57:37.126Z,9.20
2022-08-19T09:00:17.333Z,10.07
2022-08-19T09:02:50.564Z,10.53
2022-08-19T09:05:25.795Z,10.27
2022-08-19T09:08:13.778Z,9.00
2022-08-19T09:10:55.306Z,8.80
2022-08-19T09:13:28.569Z,9.33
2022-08-19T09:16:09.979Z,9.17
2022-08-19T09:18:48.327Z,11.27
2022-08-19T09:21:17.177Z,10.30
2022-08-19T09:23:47.968Z,8.50
2022-08-19T09:26:23.577Z,9.00
2022-08-19T09:29:06.239Z,12.17
2022-08-19T09:31:33.794Z,10.40
2022-08-19T09:34:00.895Z,10.23
2022-08-19T09:36:34.597Z,8.90
2022-08-19T09:39:04.405Z,8.63
2022-08-19T09:41:43.068Z,9.67
2022-08-19T09:44:14.786Z,9.20
2022-08-19T09:46:42.011Z,9.67
2022-08-19T09:49:09.105Z,10.20
2022-08-19T09:51:36.214Z,8.97
2022-08-19T09:54:06.190Z,9.80
2022-08-19T09:56:34.102Z,9.07
2022-08-19T09:59:03.645Z,9.33
2022-08-19T10:01:32.351Z,10.67
2022-08-19T10:04:01.405Z,8.37
2022-08-19T10:06:46.541Z,8.17
2022-08-19T10:09:16.027Z,8.67
2022-08-19T10:11:54.994Z,8.43
2022-08-19T10:14:24.741Z,8.17
2022-08-19T10:16:52.992Z,9.43
2022-08-19T10:19:25.270Z,8.40
2022-08-19T10:21:53.747Z,7.37
2022-08-19T10:24:21.747Z,7.57
2022-08-19T10:26:55.835Z,8.83
2022-08-19T10:29:32.725Z,7.67
2022-08-19T10:32:03.080Z,7.83
2022-08-19T10:34:32.204Z,9.00
2022-08-19T10:37:01.851Z,9.43
2022-08-19T10:39:41.106Z,8.37
2022-08-19T10:42:11.859Z,8.30
2022-08-19T10:44:38.961Z,7.63
2022-08-19T10:47:17.738Z,10.40
2022-08-19T10:50:11.738Z,6.70
2022-08-19T10:52:49.466Z,8.40
2022-08-19T10:55:38.924Z,7.43
2022-08-19T10:58:15.410Z,6.73
2022-08-19T11:00:44.835Z,8.27
2022-08-19T11:03:12.201Z,6.70
2022-08-19T11:05:40.773Z,6.73
2022-08-19T11:08:22.877Z,8.00
2022-08-19T11:10:54.773Z,7.40
2022-08-19T11:13:22.196Z,7.20
2022-08-19T11:15:57.454Z,7.40
2022-08-19T11:18:24.478Z,6.33
2022-08-19T11:20:51.501Z,11.07
2022-08-19T11:23:18.501Z,9.90
2022-08-19T11:25:46.584Z,9.63
2022-08-19T11:28:14.316Z,9.57
2022-08-19T11:30:41.379Z,7.23
2022-08-19T11:33:08.457Z,8.60
2022-08-19T11:35:39.593Z,6.43
2022-08-19T11:38:09.801Z,9.43
2022-08-19T11:40:37.203Z,8.50
2022-08-19T11:43:04.229Z,7.23
2022-08-19T11:45:32.300Z,7.83
2022-08-19T11:47:59.319Z,8.50
2022-08-19T11:50:26.376Z,9.20
2022-08-19T11:52:57.996Z,11.70
2022-08-19T11:55:24.976Z,6.53
2022-08-19T11:57:52.104Z,7.17
2022-08-19T12:00:19.590Z,8.17
2022-08-19T12:02:47.037Z,10.43
2022-08-19T12:05:14.184Z,6.73
2022-08-19T12:07:44.010Z,7.40
2022-08-19T12:10:11.667Z,6.50
2022-08-19T12:12:43.972Z,11.03
2022-08-19T12:15:15.424Z,8.63
2022-08-19T12:17:43.783Z,7.60
2022-08-19T12:20:12.054Z,9.13
2022-08-19T12:22:40.465Z,7.23
2022-08-19T12:25:10.835Z,6.50
2022-08-19T12:27:40.825Z,10.23
2022-08-19T12:30:12.244Z,5.80
2022-08-19T12:32:39.619Z,11.30
2022-08-19T12:35:08.439Z,8.10
2022-08-19T12:37:35.571Z,7.50
2022-08-19T12:40:03.894Z,7.23
2022-08-19T12:42:31.586Z,8.60
2022-08-19T12:44:58.769Z,11.33
2022-08-19T12:47:27.660Z,9.23
2022-08-19T12:49:56.122Z,6.07
2022-08-19T12:52:26.151Z,11.20
2022-08-19T12:54:55.555Z,9.60
2022-08-19T12:57:31.732Z,7.30
2022-08-19T13:00:22.277Z,12.20
2022-08-19T13:02:51.979Z,14.03
2022-08-19T13:05:23.841Z,17.07
2022-08-19T13:07:56.365Z,9.33
2022-08-19T13:10:26.077Z,9.00
2022-08-19T13:12:54.411Z,9.10
2022-08-19T13:15:24.601Z,8.33
2022-08-19T13:17:54.894Z,8.20
2022-08-19T13:20:23.288Z,11.57
2022-08-19T13:22:50.461Z,5.37
2022-08-19T13:25:20.599Z,9.67
2022-08-19T13:27:49.465Z,7.70
2022-08-19T13:30:37.053Z,10.97
2022-08-19T13:33:16.283Z,8.73
2022-08-19T13:35:51.100Z,12.33
2022-08-19T13:38:21.879Z,8.57
2022-08-19T13:40:51.457Z,9.50
2022-08-19T13:43:23.347Z,8.60
2022-08-19T13:45:54.909Z,8.10
2022-08-19T13:48:22.124Z,9.53
2022-08-19T13:50:49.580Z,14.17
2022-08-19T13:53:18.327Z,10.27
2022-08-19T13:55:45.892Z,11.13
2022-08-19T13:58:13.547Z,16.60
2022-08-19T14:00:43.442Z,8.77
2022-08-19T14:03:10.560Z,6.00
2022-08-19T14:05:38.203Z,12.20
2022-08-19T14:08:06.485Z,9.53
2022-08-19T14:10:34.521Z,8.90
2022-08-19T14:13:04.265Z,10.77
2022-08-19T14:15:32.186Z,6.30
2022-08-19T14:17:59.520Z,5.37
2022-08-19T14:20:27.233Z,8.70
2022-08-19T14:22:55.950Z,11.63
2022-08-19T14:25:27.520Z,12.87
2022-08-19T14:27:55.686Z,12.77
2022-08-19T14:30:28.804Z,8.73
2022-08-19T14:32:57.510Z,11.93
2022-08-19T14:35:25.164Z,10.47
2022-08-19T14:37:59.270Z,14.93
2022-08-19T14:40:29.868Z,11.57
2022-08-19T14:43:05.226Z,5.70
2022-08-19T14:45:35.219Z,8.03
2022-08-19T14:48:04.605Z,11.47
2022-08-19T14:50:31.806Z,12.27
2022-08-19T14:53:06.386Z,10.37
2022-08-19T14:55:43.192Z,6.53
2022-08-19T14:58:10.284Z,8.10
2022-08-19T15:00:57.809Z,7.00
2022-08-19T15:03:25.404Z,9.53
2022-08-19T15:05:52.513Z,4.73
2022-08-19T15:08:19.564Z,7.50
2022-08-19T15:10:47.992Z,7.83
2022-08-19T15:13:15.040Z,6.93
2022-08-19T15:15:42.060Z,8.43
2022-08-19T15:18:09.781Z,9.87
2022-08-19T15:20:36.952Z,12.17
2022-08-19T15:23:04.610Z,6.13
2022-08-19T15:25:31.699Z,10.60
2022-08-19T15:27:58.759Z,7.23
2022-08-19T15:30:28.322Z,13.53
2022-08-19T15:32:57.453Z,6.17
2022-08-19T15:35:25.579Z,8.43
2022-08-19T15:37:55.165Z,8.87
2022-08-19T15:40:24.800Z,7.20
2022-08-19T15:42:52.082Z,10.40
2022-08-19T15:45:21.892Z,8.00
2022-08-19T15:47:49.269Z,13.20
2022-08-19T15:50:21.249Z,8.37
2022-08-19T15:53:01.439Z,4.07
2022-08-19T15:55:34.672Z,5.43
2022-08-19T15:58:27.912Z,11.37
2022-08-19T16:01:27.232Z,8.43
2022-08-19T16:04:15.961Z,13.43
2022-08-19T16:06:55.802Z,6.47
2022-08-19T16:09:27.701Z,7.80
2022-08-19T16:12:01.208Z,6.53
2022-08-19T16:14:31.830Z,8.00
2022-08-19T16:16:58.926Z,9.43
2022-08-19T16:19:26.211Z,10.33
2022-08-19T16:21:56.067Z,5.50
2022-08-19T16:24:25.994Z,8.80
2022-08-19T16:26:53.919Z,8.80
2022-08-19T16:29:34.616Z,7.70
2022-08-19T16:32:10.434Z,9.30
2022-08-19T16:34:39.291Z,9.00
2022-08-19T16:37:06.432Z,11.10
2022-08-19T16:39:33.513Z,7.17
2022-08-19T16:42:01.129Z,8.47
2022-08-19T16:44:29.836Z,7.43
2022-08-19T16:46:59.490Z,11.27
2022-08-19T16:49:53.947Z,6.27
2022-08-19T16:52:20.191Z,7.63
2022-08-19T16:54:48.414Z,7.37
2022-08-19T16:57:16.374Z,5.70
2022-08-19T16:59:48.941Z,5.40
2022-08-19T17:02:22.633Z,9.30
2022-08-19T17:04:58.602Z,8.00
2022-08-19T17:07:33.199Z,8.20
2022-08-19T17:10:02.882Z,11.93
2022-08-19T17:12:32.532Z,6.47
2022-08-19T17:15:04.570Z,9.63
2022-08-19T17:17:32.427Z,10.07
2022-08-19T17:20:00.749Z,9.17
2022-08-19T17:22:28.934Z,5.27
2022-08-19T17:24:57.993Z,5.87
2022-08-19T17:27:26.851Z,11.40
2022-08-19T17:30:00.002Z,8.40
2022-08-19T17:32:27.759Z,8.93
2022-08-19T17:34:54.801Z,4.67
2022-08-19T17:37:21.868Z,9.30
2022-08-19T17:39:48.981Z,13.77
2022-08-19T17:42:16.080Z,12.70
2022-08-19T17:44:44.748Z,7.10
2022-08-19T17:47:18.199Z,7.00
2022-08-19T17:49:45.236Z,4.93
2022-08-19T17:52:12.541Z,9.90
2022-08-19T17:54:39.658Z,11.07
2022-08-19T17:57:06.707Z,9.83
2022-08-19T17:59:34.248Z,7.20
2022-08-19T18:02:01.349Z,11.00
2022-08-19T18:04:30.051Z,9.00
2022-08-19T18:06:57.113Z,10.20
2022-08-19T18:09:38.660Z,6.90
2022-08-19T18:12:11.004Z,11.33
2022-08-19T18:14:39.509Z,6.90
2022-08-19T18:17:10.170Z,10.53
2022-08-19T18:19:43.359Z,7.40
2022-08-19T18:22:27.013Z,8.80
2022-08-19T18:24:55.059Z,10.47
2022-08-19T18:27:22.588Z,9.67
2022-08-19T18:29:49.685Z,9.10
2022-08-19T18:32:23.598Z,5.93
2022-08-19T18:34:51.619Z,9.77
2022-08-19T18:37:18.663Z,8.57
2022-08-19T18:40:04.752Z,9.60
2022-08-19T18:42:50.277Z,15.80
2022-08-19T18:45:36.051Z,6.40
2022-08-19T18:48:27.132Z,8.40
2022-08-19T18:50:57.722Z,8.87
2022-08-19T18:53:26.911Z,9.67
2022-08-19T18:55:55.447Z,11.70
2022-08-19T18:58:26.556Z,10.23
2022-08-19T19:00:57.167Z,11.60
2022-08-19T19:03:28.200Z,8.07
2022-08-19T19:05:55.297Z,6.90
2022-08-19T19:08:27.105Z,15.10
2022-08-19T19:10:55.995Z,7.57
2022-08-19T19:13:23.159Z,16.10
2022-08-19T19:15:50.269Z,12.27
2022-08-19T19:18:17.260Z,8.13
2022-08-19T19:20:44.420Z,9.80
2022-08-19T19:23:11.490Z,12.00
2022-08-19T19:25:49.545Z,9.83
2022-08-19T19:28:29.777Z,9.97
2022-08-19T19:30:58.847Z,11.63
2022-08-19T19:33:28.163Z,6.77
2022-08-19T19:35:55.453Z,15.40
2022-08-19T19:38:22.497Z,11.10
2022-08-19T19:40:49.643Z,13.97
2022-08-19T19:43:18.562Z,7.23
2022-08-19T19:45:48.502Z,6.20
2022-08-19T19:48:16.940Z,12.03
2022-08-19T19:50:45.939Z,7.80
2022-08-19T19:53:21.747Z,9.77
2022-08-19T19:55:48.920Z,6.30
2022-08-19T19:58:15.937Z,7.03
2022-08-19T20:00:46.308Z,3.10
2022-08-19T20:03:13.440Z,7.50
2022-08-19T20:05:40.520Z,5.87
2022-08-19T20:08:26.045Z,4.47
2022-08-19T20:10:53.105Z,8.33
2022-08-19T20:13:20.311Z,4.40
2022-08-19T20:15:47.404Z,5.30
2022-08-19T20:18:17.343Z,2.87
2022-08-19T20:20:46.966Z,3.00
2022-08-19T20:23:13.992Z,3.50
2022-08-19T20:25:42.211Z,3.30
2022-08-19T20:28:09.355Z,2.90
2022-08-19T20:30:36.521Z,4.10
2022-08-19T20:33:07.185Z,2.17
2022-08-19T20:35:36.080Z,3.43
2022-08-19T20:38:04.117Z,6.43
2022-08-19T20:40:32.564Z,3.77
2022-08-19T20:42:59.584Z,3.60
2022-08-19T20:45:33.583Z,5.27
2022-08-19T20:48:03.231Z,5.67
2022-08-19T20:50:32.219Z,4.50
2022-08-19T20:52:59.431Z,2.60
2022-08-19T20:55:27.700Z,3.13
2022-08-19T20:57:55.054Z,4.37
2022-08-19T21:00:22.515Z,5.90
2022-08-19T21:02:49.630Z,7.60
2022-08-19T21:05:16.721Z,3.20
2022-08-19T21:07:44.651Z,2.00
2022-08-19T21:10:12.047Z,4.10
2022-08-19T21:12:39.928Z,2.83
2022-08-19T21:15:07.521Z,5.40
2022-08-19T21:17:34.563Z,4.13
2022-08-19T21:20:01.794Z,7.30
2022-08-19T21:22:28.848Z,3.17
2022-08-19T21:24:55.972Z,3.07
2022-08-19T21:27:22.952Z,4.07
2022-08-19T21:29:49.990Z,3.37
2022-08-19T21:32:19.141Z,4.13
2022-08-19T21:34:47.309Z,2.70
2022-08-19T21:37:24.880Z,2.90
2022-08-19T21:39:55.984Z,2.20
2022-08-19T21:42:23.928Z,3.13
2022-08-19T21:44:51.618Z,2.90
2022-08-19T21:47:18.955Z,3.70
2022-08-19T21:49:46.582Z,1.77
2022-08-19T21:52:13.822Z,2.67
2022-08-19T21:54:41.225Z,3.07
2022-08-19T21:57:10.693Z,1.47
2022-08-19T21:59:44.089Z,2.50
2022-08-19T22:02:21.347Z,3.20
2022-08-19T22:04:53.011Z,2.60
2022-08-19T22:07:21.759Z,3.53
2022-08-19T22:09:51.083Z,2.03
2022-08-19T22:12:48.791Z,1.27
2022-08-19T22:15:21.394Z,2.57
2022-08-19T22:17:50.049Z,1.37
2022-08-19T22:20:20.621Z,1.90
2022-08-19T22:22:53.788Z,3.47
2022-08-19T22:25:31.120Z,2.23
2022-08-19T22:28:01.772Z,9.63
2022-08-19T22:30:33.089Z,2.23
2022-08-19T22:33:04.783Z,2.27
2022-08-19T22:35:35.045Z,2.23
2022-08-19T22:38:03.816Z,2.80
2022-08-19T22:40:31.245Z,1.73
2022-08-19T22:43:00.392Z,1.40
2022-08-19T22:45:28.106Z,1.30
2022-08-19T22:47:56.111Z,4.33
2022-08-19T22:50:24.068Z,2.67
2022-08-19T22:52:58.133Z,2.77
2022-08-19T22:55:27.822Z,1.17
2022-08-19T22:57:55.612Z,5.07
2022-08-19T23:00:27.029Z,1.63
2022-08-19T23:02:55.771Z,2.80
2022-08-19T23:05:25.604Z,2.47
2022-08-19T23:07:57.417Z,3.30
2022-08-19T23:10:29.391Z,2.83
2022-08-19T23:13:00.108Z,3.67
2022-08-19T23:15:31.113Z,2.47
2022-08-19T23:18:01.714Z,2.33
2022-08-19T23:20:33.254Z,3.73
2022-08-19T23:23:03.711Z,3.60
2022-08-19T23:25:32.427Z,3.50
2022-08-19T23:28:18.863Z,4.60
2022-08-19T23:30:47.895Z,2.70
2022-08-19T23:33:25.089Z,2.90
2022-08-19T23:36:05.661Z,3.57
2022-08-19T23:38:33.381Z,3.90
2022-08-19T23:41:03.442Z,3.20
2022-08-19T23:43:31.469Z,2.37
2022-08-19T23:46:03.318Z,3.13
2022-08-19T23:48:38.442Z,3.30
2022-08-19T23:51:09.257Z,2.50
2022-08-19T23:53:38.370Z,2.70
2022-08-19T23:56:07.462Z,3.50
2022-08-19T23:58:36.209Z,8.53
